sensor_id;sensor_type;location;lat;lon;timestamp;P1;durP1;ratioP1;P2;durP2;ratioP2
4889;SDS011;2459;42.268;23.112;2023-05-10T00:01:06;3.20;;;2.40;;
4889;SDS011;2459;42.268;23.112;2023-05-10T00:03:33;3.30;;;2.80;;
4889;SDS011;2459;42.268;23.112;2023-05-10T00:06:00;3.73;;;3.40;;
4889;SDS011;2459;42.268;23.112;2023-05-10T00:08:27;2.60;;;2.40;;
4889;SDS011;2459;42.268;23.112;2023-05-10T00:10:54;3.33;;;2.90;;
4889;SDS011;2459;42.268;23.112;2023-05-10T00:13:20;3.60;;;3.30;;
4889;SDS011;2459;42.268;23.112;2023-05-10T00:15:47;3.67;;;3.37;;
4889;SDS011;2459;42.268;23.112;2023-05-10T00:18:15;3.23;;;3.03;;
4889;SDS011;2459;42.268;23.112;2023-05-10T00:20:41;3.17;;;2.67;;
4889;SDS011;2459;42.268;23.112;2023-05-10T00:23:08;3.60;;;3.27;;
4889;SDS011;2459;42.268;23.112;2023-05-10T00:25:34;3.20;;;3.00;;
4889;SDS011;2459;42.268;23.112;2023-05-10T00:28:01;4.40;;;4.00;;
4889;SDS011;2459;42.268;23.112;2023-05-10T00:30:27;3.60;;;3.30;;
4889;SDS011;2459;42.268;23.112;2023-05-10T00:32:54;3.80;;;3.50;;
4889;SDS011;2459;42.268;23.112;2023-05-10T00:35:22;3.03;;;2.83;;
4889;SDS011;2459;42.268;23.112;2023-05-10T00:37:48;2.70;;;2.50;;
4889;SDS011;2459;42.268;23.112;2023-05-10T00:40:15;5.10;;;3.53;;
4889;SDS011;2459;42.268;23.112;2023-05-10T00:42:41;3.77;;;3.27;;
4889;SDS011;2459;42.268;23.112;2023-05-10T00:45:08;4.70;;;4.00;;
4889;SDS011;2459;42.268;23.112;2023-05-10T00:47:35;5.20;;;3.97;;
4889;SDS011;2459;42.268;23.112;2023-05-10T00:50:01;5.80;;;4.07;;
4889;SDS011;2459;42.268;23.112;2023-05-10T00:52:30;3.20;;;3.00;;
4889;SDS011;2459;42.268;23.112;2023-05-10T00:54:56;5.10;;;4.60;;
4889;SDS011;2459;42.268;23.112;2023-05-10T00:57:23;5.50;;;4.07;;
4889;SDS011;2459;42.268;23.112;2023-05-10T00:59:50;5.00;;;4.17;;
4889;SDS011;2459;42.268;23.112;2023-05-10T01:02:17;5.40;;;4.90;;
4889;SDS011;2459;42.268;23.112;2023-05-10T01:04:43;6.47;;;5.20;;
4889;SDS011;2459;42.268;23.112;2023-05-10T01:07:10;5.43;;;4.87;;
4889;SDS011;2459;42.268;23.112;2023-05-10T01:09:38;4.70;;;4.30;;
4889;SDS011;2459;42.268;23.112;2023-05-10T01:12:07;4.50;;;4.10;;
4889;SDS011;2459;42.268;23.112;2023-05-10T01:14:33;3.83;;;3.53;;
4889;SDS011;2459;42.268;23.112;2023-05-10T01:17:01;4.27;;;3.47;;
4889;SDS011;2459;42.268;23.112;2023-05-10T01:19:28;3.37;;;3.07;;
4889;SDS011;2459;42.268;23.112;2023-05-10T01:21:57;3.87;;;3.53;;
4889;SDS011;2459;42.268;23.112;2023-05-10T01:24:46;4.50;;;3.67;;
4889;SDS011;2459;42.268;23.112;2023-05-10T01:27:25;4.07;;;3.13;;
4889;SDS011;2459;42.268;23.112;2023-05-10T01:32:49;5.03;;;3.17;;
4889;SDS011;2459;42.268;23.112;2023-05-10T01:35:22;3.30;;;3.00;;
4889;SDS011;2459;42.268;23.112;2023-05-10T01:37:50;3.60;;;3.30;;
4889;SDS011;2459;42.268;23.112;2023-05-10T01:40:19;5.50;;;3.37;;
4889;SDS011;2459;42.268;23.112;2023-05-10T01:42:49;2.97;;;2.77;;
4889;SDS011;2459;42.268;23.112;2023-05-10T01:45:18;3.60;;;3.27;;
4889;SDS011;2459;42.268;23.112;2023-05-10T01:47:46;4.33;;;3.43;;
4889;SDS011;2459;42.268;23.112;2023-05-10T01:50:18;4.13;;;3.50;;
4889;SDS011;2459;42.268;23.112;2023-05-10T01:52:47;1.90;;;1.80;;
4889;SDS011;2459;42.268;23.112;2023-05-10T01:55:16;3.73;;;2.73;;
4889;SDS011;2459;42.268;23.112;2023-05-10T01:57:44;4.10;;;3.77;;
4889;SDS011;2459;42.268;23.112;2023-05-10T02:00:13;2.90;;;2.70;;
4889;SDS011;2459;42.268;23.112;2023-05-10T02:02:42;3.20;;;2.90;;
4889;SDS011;2459;42.268;23.112;2023-05-10T02:05:13;3.27;;;2.97;;
4889;SDS011;2459;42.268;23.112;2023-05-10T02:07:42;4.00;;;3.60;;
4889;SDS011;2459;42.268;23.112;2023-05-10T02:10:09;7.30;;;3.63;;
4889;SDS011;2459;42.268;23.112;2023-05-10T02:12:37;2.77;;;2.57;;
4889;SDS011;2459;42.268;23.112;2023-05-10T02:15:05;2.83;;;2.50;;
4889;SDS011;2459;42.268;23.112;2023-05-10T02:17:33;2.00;;;1.90;;
4889;SDS011;2459;42.268;23.112;2023-05-10T02:20:01;4.30;;;4.00;;
4889;SDS011;2459;42.268;23.112;2023-05-10T02:22:29;4.67;;;3.50;;
4889;SDS011;2459;42.268;23.112;2023-05-10T02:24:57;3.60;;;3.00;;
4889;SDS011;2459;42.268;23.112;2023-05-10T02:27:24;3.80;;;3.50;;
4889;SDS011;2459;42.268;23.112;2023-05-10T02:29:51;3.50;;;3.10;;
4889;SDS011;2459;42.268;23.112;2023-05-10T02:32:19;6.93;;;3.20;;
4889;SDS011;2459;42.268;23.112;2023-05-10T02:34:45;4.47;;;4.07;;
4889;SDS011;2459;42.268;23.112;2023-05-10T02:37:17;3.50;;;3.20;;
4889;SDS011;2459;42.268;23.112;2023-05-10T02:39:45;4.37;;;3.63;;
4889;SDS011;2459;42.268;23.112;2023-05-10T02:42:14;5.53;;;4.97;;
4889;SDS011;2459;42.268;23.112;2023-05-10T02:44:42;5.07;;;4.53;;
4889;SDS011;2459;42.268;23.112;2023-05-10T02:47:12;3.30;;;3.00;;
4889;SDS011;2459;42.268;23.112;2023-05-10T02:49:38;4.30;;;3.93;;
4889;SDS011;2459;42.268;23.112;2023-05-10T02:52:05;7.00;;;3.80;;
4889;SDS011;2459;42.268;23.112;2023-05-10T02:54:34;6.53;;;4.77;;
4889;SDS011;2459;42.268;23.112;2023-05-10T02:57:06;5.47;;;4.27;;
4889;SDS011;2459;42.268;23.112;2023-05-10T02:59:34;6.23;;;3.83;;
4889;SDS011;2459;42.268;23.112;2023-05-10T03:02:00;3.37;;;3.00;;
4889;SDS011;2459;42.268;23.112;2023-05-10T03:04:27;5.23;;;4.53;;
4889;SDS011;2459;42.268;23.112;2023-05-10T03:06:54;5.50;;;4.97;;
4889;SDS011;2459;42.268;23.112;2023-05-10T03:09:20;9.33;;;5.20;;
4889;SDS011;2459;42.268;23.112;2023-05-10T03:11:49;6.20;;;4.53;;
4889;SDS011;2459;42.268;23.112;2023-05-10T03:14:21;4.67;;;3.70;;
4889;SDS011;2459;42.268;23.112;2023-05-10T03:17:00;6.73;;;5.60;;
4889;SDS011;2459;42.268;23.112;2023-05-10T03:19:31;6.20;;;5.00;;
4889;SDS011;2459;42.268;23.112;2023-05-10T03:21:59;2.77;;;2.57;;
4889;SDS011;2459;42.268;23.112;2023-05-10T03:24:26;4.07;;;3.77;;
4889;SDS011;2459;42.268;23.112;2023-05-10T03:26:53;5.33;;;4.50;;
4889;SDS011;2459;42.268;23.112;2023-05-10T03:29:21;4.27;;;3.87;;
4889;SDS011;2459;42.268;23.112;2023-05-10T03:31:49;4.97;;;3.40;;
4889;SDS011;2459;42.268;23.112;2023-05-10T03:34:17;5.27;;;3.73;;
4889;SDS011;2459;42.268;23.112;2023-05-10T03:36:49;4.50;;;4.10;;
4889;SDS011;2459;42.268;23.112;2023-05-10T03:39:15;6.07;;;5.10;;
4889;SDS011;2459;42.268;23.112;2023-05-10T03:41:42;4.90;;;4.40;;
4889;SDS011;2459;42.268;23.112;2023-05-10T03:44:08;4.93;;;4.23;;
4889;SDS011;2459;42.268;23.112;2023-05-10T03:46:35;7.63;;;5.50;;
4889;SDS011;2459;42.268;23.112;2023-05-10T03:49:02;4.17;;;3.77;;
4889;SDS011;2459;42.268;23.112;2023-05-10T03:51:30;5.17;;;4.53;;
4889;SDS011;2459;42.268;23.112;2023-05-10T03:53:56;5.37;;;3.80;;
4889;SDS011;2459;42.268;23.112;2023-05-10T03:56:23;7.23;;;5.27;;
4889;SDS011;2459;42.268;23.112;2023-05-10T03:58:49;3.90;;;3.43;;
4889;SDS011;2459;42.268;23.112;2023-05-10T04:01:16;5.50;;;3.60;;
4889;SDS011;2459;42.268;23.112;2023-05-10T04:03:42;7.03;;;4.67;;
4889;SDS011;2459;42.268;23.112;2023-05-10T04:06:09;8.27;;;5.20;;
4889;SDS011;2459;42.268;23.112;2023-05-10T04:08:38;6.10;;;5.40;;
4889;SDS011;2459;42.268;23.112;2023-05-10T04:11:05;6.07;;;4.80;;
4889;SDS011;2459;42.268;23.112;2023-05-10T04:13:31;10.43;;;7.00;;
4889;SDS011;2459;42.268;23.112;2023-05-10T04:15:59;6.07;;;4.93;;
4889;SDS011;2459;42.268;23.112;2023-05-10T04:18:26;8.23;;;5.83;;
4889;SDS011;2459;42.268;23.112;2023-05-10T04:20:52;7.87;;;5.60;;
4889;SDS011;2459;42.268;23.112;2023-05-10T04:23:19;3.90;;;3.10;;
4889;SDS011;2459;42.268;23.112;2023-05-10T04:25:47;6.40;;;4.53;;
4889;SDS011;2459;42.268;23.112;2023-05-10T04:28:13;9.87;;;5.80;;
4889;SDS011;2459;42.268;23.112;2023-05-10T04:30:40;3.50;;;3.17;;
4889;SDS011;2459;42.268;23.112;2023-05-10T04:33:06;8.13;;;5.90;;
4889;SDS011;2459;42.268;23.112;2023-05-10T04:35:33;7.40;;;5.20;;
4889;SDS011;2459;42.268;23.112;2023-05-10T04:37:59;2.47;;;2.27;;
4889;SDS011;2459;42.268;23.112;2023-05-10T04:40:26;4.70;;;3.23;;
4889;SDS011;2459;42.268;23.112;2023-05-10T04:42:54;6.27;;;2.90;;
4889;SDS011;2459;42.268;23.112;2023-05-10T04:45:20;6.50;;;4.53;;
4889;SDS011;2459;42.268;23.112;2023-05-10T04:47:47;5.90;;;4.97;;
4889;SDS011;2459;42.268;23.112;2023-05-10T04:50:14;11.10;;;5.60;;
4889;SDS011;2459;42.268;23.112;2023-05-10T04:52:40;6.10;;;4.17;;
4889;SDS011;2459;42.268;23.112;2023-05-10T04:55:07;7.27;;;4.97;;
4889;SDS011;2459;42.268;23.112;2023-05-10T04:57:35;7.33;;;6.27;;
4889;SDS011;2459;42.268;23.112;2023-05-10T05:00:03;6.60;;;5.87;;
4889;SDS011;2459;42.268;23.112;2023-05-10T05:02:32;7.80;;;4.57;;
4889;SDS011;2459;42.268;23.112;2023-05-10T05:04:58;7.27;;;6.30;;
4889;SDS011;2459;42.268;23.112;2023-05-10T05:07:25;11.50;;;6.80;;
4889;SDS011;2459;42.268;23.112;2023-05-10T05:09:53;6.13;;;4.17;;
4889;SDS011;2459;42.268;23.112;2023-05-10T05:12:20;3.87;;;3.00;;
4889;SDS011;2459;42.268;23.112;2023-05-10T05:14:46;8.60;;;6.40;;
4889;SDS011;2459;42.268;23.112;2023-05-10T05:17:14;7.17;;;6.47;;
4889;SDS011;2459;42.268;23.112;2023-05-10T05:19:41;4.93;;;4.27;;
4889;SDS011;2459;42.268;23.112;2023-05-10T05:22:08;9.77;;;6.60;;
4889;SDS011;2459;42.268;23.112;2023-05-10T05:24:35;5.37;;;4.87;;
4889;SDS011;2459;42.268;23.112;2023-05-10T05:27:03;6.33;;;4.13;;
4889;SDS011;2459;42.268;23.112;2023-05-10T05:29:29;6.37;;;5.37;;
4889;SDS011;2459;42.268;23.112;2023-05-10T05:31:56;5.70;;;4.53;;
4889;SDS011;2459;42.268;23.112;2023-05-10T05:34:24;9.20;;;6.90;;
4889;SDS011;2459;42.268;23.112;2023-05-10T05:36:52;7.60;;;4.10;;
4889;SDS011;2459;42.268;23.112;2023-05-10T05:39:19;12.83;;;5.40;;
4889;SDS011;2459;42.268;23.112;2023-05-10T05:41:45;7.17;;;5.43;;
4889;SDS011;2459;42.268;23.112;2023-05-10T05:44:12;9.27;;;5.33;;
4889;SDS011;2459;42.268;23.112;2023-05-10T05:46:38;3.50;;;3.17;;
4889;SDS011;2459;42.268;23.112;2023-05-10T05:49:05;8.77;;;5.90;;
4889;SDS011;2459;42.268;23.112;2023-05-10T05:51:33;11.20;;;7.10;;
4889;SDS011;2459;42.268;23.112;2023-05-10T05:54:00;6.17;;;3.80;;
4889;SDS011;2459;42.268;23.112;2023-05-10T05:56:29;9.30;;;4.87;;
4889;SDS011;2459;42.268;23.112;2023-05-10T05:58:55;10.73;;;6.60;;
4889;SDS011;2459;42.268;23.112;2023-05-10T06:01:22;17.40;;;6.70;;
4889;SDS011;2459;42.268;23.112;2023-05-10T06:03:48;5.80;;;3.83;;
4889;SDS011;2459;42.268;23.112;2023-05-10T06:06:15;11.33;;;6.40;;
4889;SDS011;2459;42.268;23.112;2023-05-10T06:08:43;10.20;;;6.93;;
4889;SDS011;2459;42.268;23.112;2023-05-10T06:11:09;10.07;;;7.30;;
4889;SDS011;2459;42.268;23.112;2023-05-10T06:13:36;11.17;;;5.60;;
4889;SDS011;2459;42.268;23.112;2023-05-10T06:16:05;9.50;;;7.23;;
4889;SDS011;2459;42.268;23.112;2023-05-10T06:18:32;7.93;;;6.97;;
4889;SDS011;2459;42.268;23.112;2023-05-10T06:20:58;10.93;;;6.13;;
4889;SDS011;2459;42.268;23.112;2023-05-10T06:23:25;38.87;;;6.83;;
4889;SDS011;2459;42.268;23.112;2023-05-10T06:25:53;9.70;;;6.20;;
4889;SDS011;2459;42.268;23.112;2023-05-10T06:28:20;11.43;;;6.53;;
4889;SDS011;2459;42.268;23.112;2023-05-10T06:30:46;4.33;;;3.03;;
4889;SDS011;2459;42.268;23.112;2023-05-10T06:33:14;4.87;;;3.07;;
4889;SDS011;2459;42.268;23.112;2023-05-10T06:35:42;7.17;;;6.07;;
4889;SDS011;2459;42.268;23.112;2023-05-10T06:38:09;12.00;;;6.33;;
4889;SDS011;2459;42.268;23.112;2023-05-10T06:40:36;4.97;;;3.40;;
4889;SDS011;2459;42.268;23.112;2023-05-10T06:43:05;8.63;;;5.57;;
4889;SDS011;2459;42.268;23.112;2023-05-10T06:45:31;8.60;;;6.33;;
4889;SDS011;2459;42.268;23.112;2023-05-10T06:47:58;10.27;;;5.50;;
4889;SDS011;2459;42.268;23.112;2023-05-10T06:50:24;9.37;;;6.50;;
4889;SDS011;2459;42.268;23.112;2023-05-10T06:52:51;10.73;;;5.60;;
4889;SDS011;2459;42.268;23.112;2023-05-10T06:55:18;10.13;;;6.37;;
4889;SDS011;2459;42.268;23.112;2023-05-10T06:57:44;4.50;;;3.27;;
4889;SDS011;2459;42.268;23.112;2023-05-10T07:00:13;13.63;;;6.33;;
4889;SDS011;2459;42.268;23.112;2023-05-10T07:02:39;3.80;;;3.47;;
4889;SDS011;2459;42.268;23.112;2023-05-10T07:05:06;8.10;;;4.90;;
4889;SDS011;2459;42.268;23.112;2023-05-10T07:07:33;3.70;;;3.33;;
4889;SDS011;2459;42.268;23.112;2023-05-10T07:10:00;4.33;;;3.57;;
4889;SDS011;2459;42.268;23.112;2023-05-10T07:12:27;12.13;;;6.23;;
4889;SDS011;2459;42.268;23.112;2023-05-10T07:14:53;5.10;;;4.60;;
4889;SDS011;2459;42.268;23.112;2023-05-10T07:17:21;11.87;;;8.00;;
4889;SDS011;2459;42.268;23.112;2023-05-10T07:19:48;10.53;;;4.30;;
4889;SDS011;2459;42.268;23.112;2023-05-10T07:22:19;4.83;;;4.20;;
4889;SDS011;2459;42.268;23.112;2023-05-10T07:24:45;10.63;;;6.60;;
4889;SDS011;2459;42.268;23.112;2023-05-10T07:27:12;13.40;;;7.20;;
4889;SDS011;2459;42.268;23.112;2023-05-10T07:29:39;8.57;;;5.00;;
4889;SDS011;2459;42.268;23.112;2023-05-10T07:32:05;10.87;;;4.80;;
4889;SDS011;2459;42.268;23.112;2023-05-10T07:34:33;8.67;;;5.83;;
4889;SDS011;2459;42.268;23.112;2023-05-10T07:37:00;8.00;;;5.03;;
4889;SDS011;2459;42.268;23.112;2023-05-10T07:39:27;14.63;;;4.87;;
4889;SDS011;2459;42.268;23.112;2023-05-10T07:41:54;12.70;;;7.63;;
4889;SDS011;2459;42.268;23.112;2023-05-10T07:44:21;18.53;;;8.00;;
4889;SDS011;2459;42.268;23.112;2023-05-10T07:46:47;11.43;;;5.87;;
4889;SDS011;2459;42.268;23.112;2023-05-10T07:49:14;13.67;;;8.10;;
4889;SDS011;2459;42.268;23.112;2023-05-10T07:51:42;8.13;;;5.13;;
4889;SDS011;2459;42.268;23.112;2023-05-10T07:54:09;31.33;;;6.43;;
4889;SDS011;2459;42.268;23.112;2023-05-10T07:56:35;13.70;;;6.43;;
4889;SDS011;2459;42.268;23.112;2023-05-10T07:59:02;12.57;;;4.87;;
4889;SDS011;2459;42.268;23.112;2023-05-10T08:01:30;8.60;;;4.60;;
4889;SDS011;2459;42.268;23.112;2023-05-10T08:03:57;9.70;;;6.80;;
4889;SDS011;2459;42.268;23.112;2023-05-10T08:06:24;11.07;;;7.50;;
4889;SDS011;2459;42.268;23.112;2023-05-10T08:08:54;13.50;;;6.80;;
4889;SDS011;2459;42.268;23.112;2023-05-10T08:11:21;9.20;;;4.97;;
4889;SDS011;2459;42.268;23.112;2023-05-10T08:13:49;11.83;;;6.23;;
4889;SDS011;2459;42.268;23.112;2023-05-10T08:16:16;11.80;;;7.00;;
4889;SDS011;2459;42.268;23.112;2023-05-10T08:18:43;9.60;;;6.83;;
4889;SDS011;2459;42.268;23.112;2023-05-10T08:21:09;11.03;;;7.10;;
4889;SDS011;2459;42.268;23.112;2023-05-10T08:23:36;4.87;;;4.17;;
4889;SDS011;2459;42.268;23.112;2023-05-10T08:26:10;10.30;;;6.90;;
4889;SDS011;2459;42.268;23.112;2023-05-10T08:28:36;13.40;;;7.90;;
4889;SDS011;2459;42.268;23.112;2023-05-10T08:31:04;8.30;;;6.13;;
4889;SDS011;2459;42.268;23.112;2023-05-10T08:33:31;12.30;;;7.30;;
4889;SDS011;2459;42.268;23.112;2023-05-10T08:35:57;8.10;;;4.90;;
4889;SDS011;2459;42.268;23.112;2023-05-10T08:38:24;10.80;;;7.00;;
4889;SDS011;2459;42.268;23.112;2023-05-10T08:40:51;9.63;;;4.97;;
4889;SDS011;2459;42.268;23.112;2023-05-10T08:43:22;18.53;;;9.90;;
4889;SDS011;2459;42.268;23.112;2023-05-10T08:45:54;10.30;;;7.07;;
4889;SDS011;2459;42.268;23.112;2023-05-10T08:48:22;14.60;;;7.03;;
4889;SDS011;2459;42.268;23.112;2023-05-10T08:50:52;5.23;;;3.70;;
4889;SDS011;2459;42.268;23.112;2023-05-10T08:53:19;6.33;;;4.73;;
4889;SDS011;2459;42.268;23.112;2023-05-10T08:55:46;8.20;;;6.20;;
4889;SDS011;2459;42.268;23.112;2023-05-10T08:58:13;13.07;;;9.60;;
4889;SDS011;2459;42.268;23.112;2023-05-10T09:00:42;12.00;;;7.33;;
4889;SDS011;2459;42.268;23.112;2023-05-10T09:03:09;9.23;;;6.30;;
4889;SDS011;2459;42.268;23.112;2023-05-10T09:05:36;14.50;;;7.13;;
4889;SDS011;2459;42.268;23.112;2023-05-10T09:08:03;9.47;;;6.70;;
4889;SDS011;2459;42.268;23.112;2023-05-10T09:10:30;12.30;;;7.30;;
4889;SDS011;2459;42.268;23.112;2023-05-10T09:12:57;16.70;;;6.37;;
4889;SDS011;2459;42.268;23.112;2023-05-10T09:15:24;25.00;;;6.57;;
4889;SDS011;2459;42.268;23.112;2023-05-10T09:17:52;11.93;;;8.20;;
4889;SDS011;2459;42.268;23.112;2023-05-10T09:20:18;9.60;;;7.20;;
4889;SDS011;2459;42.268;23.112;2023-05-10T09:22:45;5.73;;;3.67;;
4889;SDS011;2459;42.268;23.112;2023-05-10T09:25:12;16.13;;;8.70;;
4889;SDS011;2459;42.268;23.112;2023-05-10T09:27:40;13.97;;;6.17;;
4889;SDS011;2459;42.268;23.112;2023-05-10T09:30:07;10.57;;;7.70;;
4889;SDS011;2459;42.268;23.112;2023-05-10T09:32:37;22.67;;;9.40;;
4889;SDS011;2459;42.268;23.112;2023-05-10T09:35:09;11.13;;;6.97;;
4889;SDS011;2459;42.268;23.112;2023-05-10T09:37:36;23.10;;;9.57;;
4889;SDS011;2459;42.268;23.112;2023-05-10T09:40:04;14.60;;;8.30;;
4889;SDS011;2459;42.268;23.112;2023-05-10T09:42:31;13.67;;;8.30;;
4889;SDS011;2459;42.268;23.112;2023-05-10T09:44:59;6.47;;;5.43;;
4889;SDS011;2459;42.268;23.112;2023-05-10T09:47:26;10.50;;;5.83;;
4889;SDS011;2459;42.268;23.112;2023-05-10T09:49:53;14.20;;;8.83;;
4889;SDS011;2459;42.268;23.112;2023-05-10T09:52:22;12.97;;;8.17;;
4889;SDS011;2459;42.268;23.112;2023-05-10T09:54:52;9.03;;;5.73;;
4889;SDS011;2459;42.268;23.112;2023-05-10T09:57:20;15.30;;;6.90;;
4889;SDS011;2459;42.268;23.112;2023-05-10T09:59:47;17.20;;;9.93;;
4889;SDS011;2459;42.268;23.112;2023-05-10T10:02:14;9.30;;;6.50;;
4889;SDS011;2459;42.268;23.112;2023-05-10T10:04:41;9.40;;;6.73;;
4889;SDS011;2459;42.268;23.112;2023-05-10T10:07:08;9.77;;;5.50;;
4889;SDS011;2459;42.268;23.112;2023-05-10T10:09:36;11.27;;;6.83;;
4889;SDS011;2459;42.268;23.112;2023-05-10T10:12:02;10.03;;;5.53;;
4889;SDS011;2459;42.268;23.112;2023-05-10T10:14:29;5.30;;;3.60;;
4889;SDS011;2459;42.268;23.112;2023-05-10T10:16:56;11.50;;;7.63;;
4889;SDS011;2459;42.268;23.112;2023-05-10T10:19:22;11.83;;;4.53;;
4889;SDS011;2459;42.268;23.112;2023-05-10T10:21:49;11.87;;;6.53;;
4889;SDS011;2459;42.268;23.112;2023-05-10T10:24:16;13.10;;;6.83;;
4889;SDS011;2459;42.268;23.112;2023-05-10T10:26:44;7.07;;;5.73;;
4889;SDS011;2459;42.268;23.112;2023-05-10T10:29:16;7.83;;;6.30;;
4889;SDS011;2459;42.268;23.112;2023-05-10T10:31:46;7.47;;;4.90;;
4889;SDS011;2459;42.268;23.112;2023-05-10T10:34:17;18.60;;;10.50;;
4889;SDS011;2459;42.268;23.112;2023-05-10T10:36:48;4.67;;;4.20;;
4889;SDS011;2459;42.268;23.112;2023-05-10T10:39:15;20.70;;;10.47;;
4889;SDS011;2459;42.268;23.112;2023-05-10T10:41:50;11.80;;;7.70;;
4889;SDS011;2459;42.268;23.112;2023-05-10T10:44:23;10.80;;;6.77;;
4889;SDS011;2459;42.268;23.112;2023-05-10T10:47:03;7.23;;;5.17;;
4889;SDS011;2459;42.268;23.112;2023-05-10T10:49:31;12.27;;;7.83;;
4889;SDS011;2459;42.268;23.112;2023-05-10T10:52:14;9.83;;;6.93;;
4889;SDS011;2459;42.268;23.112;2023-05-10T10:54:41;8.63;;;4.67;;
4889;SDS011;2459;42.268;23.112;2023-05-10T10:57:12;19.13;;;7.70;;
4889;SDS011;2459;42.268;23.112;2023-05-10T10:59:41;6.03;;;4.57;;
4889;SDS011;2459;42.268;23.112;2023-05-10T11:02:09;7.60;;;5.77;;
4889;SDS011;2459;42.268;23.112;2023-05-10T11:04:42;12.80;;;8.30;;
4889;SDS011;2459;42.268;23.112;2023-05-10T11:07:17;9.97;;;7.23;;
4889;SDS011;2459;42.268;23.112;2023-05-10T11:09:45;16.53;;;9.83;;
4889;SDS011;2459;42.268;23.112;2023-05-10T11:12:14;9.50;;;7.70;;
4889;SDS011;2459;42.268;23.112;2023-05-10T11:14:40;10.73;;;8.40;;
4889;SDS011;2459;42.268;23.112;2023-05-10T11:20:07;15.50;;;8.90;;
4889;SDS011;2459;42.268;23.112;2023-05-10T11:22:48;15.53;;;8.40;;
4889;SDS011;2459;42.268;23.112;2023-05-10T11:25:17;22.23;;;7.43;;
4889;SDS011;2459;42.268;23.112;2023-05-10T11:27:46;13.87;;;8.77;;
4889;SDS011;2459;42.268;23.112;2023-05-10T11:30:14;12.30;;;9.50;;
4889;SDS011;2459;42.268;23.112;2023-05-10T11:32:41;10.30;;;6.57;;
4889;SDS011;2459;42.268;23.112;2023-05-10T11:35:07;14.83;;;9.10;;
4889;SDS011;2459;42.268;23.112;2023-05-10T11:37:34;13.67;;;9.43;;
4889;SDS011;2459;42.268;23.112;2023-05-10T11:40:01;20.17;;;11.60;;
4889;SDS011;2459;42.268;23.112;2023-05-10T11:42:28;14.23;;;8.47;;
4889;SDS011;2459;42.268;23.112;2023-05-10T11:44:56;10.80;;;6.10;;
4889;SDS011;2459;42.268;23.112;2023-05-10T11:47:23;7.93;;;6.00;;
4889;SDS011;2459;42.268;23.112;2023-05-10T11:49:50;10.03;;;6.83;;
4889;SDS011;2459;42.268;23.112;2023-05-10T11:52:20;6.83;;;6.10;;
4889;SDS011;2459;42.268;23.112;2023-05-10T11:54:50;13.00;;;6.97;;
4889;SDS011;2459;42.268;23.112;2023-05-10T11:57:18;9.37;;;7.83;;
4889;SDS011;2459;42.268;23.112;2023-05-10T11:59:46;9.87;;;5.83;;
4889;SDS011;2459;42.268;23.112;2023-05-10T12:02:14;9.50;;;6.43;;
4889;SDS011;2459;42.268;23.112;2023-05-10T12:04:41;7.87;;;5.03;;
4889;SDS011;2459;42.268;23.112;2023-05-10T12:07:08;11.40;;;8.20;;
4889;SDS011;2459;42.268;23.112;2023-05-10T12:09:35;13.07;;;8.30;;
4889;SDS011;2459;42.268;23.112;2023-05-10T12:12:01;17.80;;;8.97;;
4889;SDS011;2459;42.268;23.112;2023-05-10T12:14:28;11.27;;;8.37;;
4889;SDS011;2459;42.268;23.112;2023-05-10T12:16:58;9.50;;;6.87;;
4889;SDS011;2459;42.268;23.112;2023-05-10T12:19:26;14.30;;;8.33;;
4889;SDS011;2459;42.268;23.112;2023-05-10T12:21:52;9.40;;;5.37;;
4889;SDS011;2459;42.268;23.112;2023-05-10T12:24:19;11.13;;;8.57;;
4889;SDS011;2459;42.268;23.112;2023-05-10T12:26:46;12.03;;;7.93;;
4889;SDS011;2459;42.268;23.112;2023-05-10T12:29:13;24.50;;;7.33;;
4889;SDS011;2459;42.268;23.112;2023-05-10T12:31:48;10.70;;;7.50;;
4889;SDS011;2459;42.268;23.112;2023-05-10T12:34:22;11.40;;;7.60;;
4889;SDS011;2459;42.268;23.112;2023-05-10T12:36:51;18.00;;;10.47;;
4889;SDS011;2459;42.268;23.112;2023-05-10T12:39:17;22.33;;;11.27;;
4889;SDS011;2459;42.268;23.112;2023-05-10T12:41:44;16.23;;;10.30;;
4889;SDS011;2459;42.268;23.112;2023-05-10T12:44:12;10.20;;;6.43;;
4889;SDS011;2459;42.268;23.112;2023-05-10T12:46:38;10.63;;;6.17;;
4889;SDS011;2459;42.268;23.112;2023-05-10T12:49:05;20.23;;;10.13;;
4889;SDS011;2459;42.268;23.112;2023-05-10T12:51:31;16.17;;;9.37;;
4889;SDS011;2459;42.268;23.112;2023-05-10T12:53:59;9.10;;;6.43;;
4889;SDS011;2459;42.268;23.112;2023-05-10T12:56:28;10.90;;;6.70;;
4889;SDS011;2459;42.268;23.112;2023-05-10T12:58:54;11.27;;;7.37;;
4889;SDS011;2459;42.268;23.112;2023-05-10T13:01:21;22.70;;;9.80;;
4889;SDS011;2459;42.268;23.112;2023-05-10T13:03:48;23.53;;;8.63;;
4889;SDS011;2459;42.268;23.112;2023-05-10T13:06:15;13.93;;;10.40;;
4889;SDS011;2459;42.268;23.112;2023-05-10T13:08:42;23.53;;;11.67;;
4889;SDS011;2459;42.268;23.112;2023-05-10T13:11:18;13.40;;;10.00;;
4889;SDS011;2459;42.268;23.112;2023-05-10T13:13:46;19.47;;;10.53;;
4889;SDS011;2459;42.268;23.112;2023-05-10T13:16:12;15.10;;;10.10;;
4889;SDS011;2459;42.268;23.112;2023-05-10T13:18:39;19.77;;;12.40;;
4889;SDS011;2459;42.268;23.112;2023-05-10T13:21:06;15.67;;;10.30;;
4889;SDS011;2459;42.268;23.112;2023-05-10T13:23:33;21.80;;;10.97;;
4889;SDS011;2459;42.268;23.112;2023-05-10T13:26:00;20.27;;;8.20;;
4889;SDS011;2459;42.268;23.112;2023-05-10T13:28:28;20.50;;;11.07;;
4889;SDS011;2459;42.268;23.112;2023-05-10T13:30:55;14.70;;;9.97;;
4889;SDS011;2459;42.268;23.112;2023-05-10T13:33:21;13.37;;;9.10;;
4889;SDS011;2459;42.268;23.112;2023-05-10T13:35:48;19.50;;;9.90;;
4889;SDS011;2459;42.268;23.112;2023-05-10T13:38:14;11.97;;;7.50;;
4889;SDS011;2459;42.268;23.112;2023-05-10T13:40:41;22.33;;;11.60;;
4889;SDS011;2459;42.268;23.112;2023-05-10T13:43:08;22.97;;;8.03;;
4889;SDS011;2459;42.268;23.112;2023-05-10T13:45:36;17.80;;;11.10;;
4889;SDS011;2459;42.268;23.112;2023-05-10T13:48:02;18.67;;;9.93;;
4889;SDS011;2459;42.268;23.112;2023-05-10T13:50:29;15.33;;;7.30;;
4889;SDS011;2459;42.268;23.112;2023-05-10T13:52:56;15.87;;;10.10;;
4889;SDS011;2459;42.268;23.112;2023-05-10T13:58:26;14.67;;;8.17;;
4889;SDS011;2459;42.268;23.112;2023-05-10T14:00:54;14.00;;;9.50;;
4889;SDS011;2459;42.268;23.112;2023-05-10T14:03:20;21.40;;;12.40;;
4889;SDS011;2459;42.268;23.112;2023-05-10T14:05:47;17.47;;;11.33;;
4889;SDS011;2459;42.268;23.112;2023-05-10T14:08:13;19.93;;;9.03;;
4889;SDS011;2459;42.268;23.112;2023-05-10T14:10:41;14.23;;;9.20;;
4889;SDS011;2459;42.268;23.112;2023-05-10T14:13:08;17.57;;;8.73;;
4889;SDS011;2459;42.268;23.112;2023-05-10T14:15:34;21.03;;;11.77;;
4889;SDS011;2459;42.268;23.112;2023-05-10T14:18:02;12.87;;;8.20;;
4889;SDS011;2459;42.268;23.112;2023-05-10T14:20:29;12.50;;;8.93;;
4889;SDS011;2459;42.268;23.112;2023-05-10T14:22:57;10.27;;;7.60;;
4889;SDS011;2459;42.268;23.112;2023-05-10T14:25:23;18.60;;;9.33;;
4889;SDS011;2459;42.268;23.112;2023-05-10T14:27:50;15.00;;;9.30;;
4889;SDS011;2459;42.268;23.112;2023-05-10T14:30:19;17.27;;;8.23;;
4889;SDS011;2459;42.268;23.112;2023-05-10T14:32:46;24.83;;;11.20;;
4889;SDS011;2459;42.268;23.112;2023-05-10T14:35:14;7.33;;;6.13;;
4889;SDS011;2459;42.268;23.112;2023-05-10T14:37:40;11.50;;;7.87;;
4889;SDS011;2459;42.268;23.112;2023-05-10T14:40:07;19.07;;;8.40;;
4889;SDS011;2459;42.268;23.112;2023-05-10T14:42:34;16.20;;;9.70;;
4889;SDS011;2459;42.268;23.112;2023-05-10T14:45:01;12.40;;;8.70;;
4889;SDS011;2459;42.268;23.112;2023-05-10T14:47:27;5.93;;;4.23;;
4889;SDS011;2459;42.268;23.112;2023-05-10T14:49:54;12.80;;;6.90;;
4889;SDS011;2459;42.268;23.112;2023-05-10T14:55:24;17.90;;;9.20;;
4889;SDS011;2459;42.268;23.112;2023-05-10T14:57:51;17.43;;;10.80;;
4889;SDS011;2459;42.268;23.112;2023-05-10T15:00:18;12.70;;;8.53;;
4889;SDS011;2459;42.268;23.112;2023-05-10T15:02:45;17.20;;;9.87;;
4889;SDS011;2459;42.268;23.112;2023-05-10T15:05:13;19.47;;;8.80;;
4889;SDS011;2459;42.268;23.112;2023-05-10T15:07:40;19.43;;;8.40;;
4889;SDS011;2459;42.268;23.112;2023-05-10T15:10:08;17.67;;;9.90;;